Date,TemperatureHighF,TemperatureAvgF,TemperatureLowF,DewpointHighF,DewpointAvgF,DewpointLowF,HumidityHigh,HumidityAvg,HumidityLow,PressureMaxIn,PressureMinIn,WindSpeedMaxMPH,WindSpeedAvgMPH,GustSpeedMaxMPH,PrecipitationSumIn
2013-1-30,64.0,60.9,55.0,56.0,52.0,50.0,85,73,64,29.43,29.09,13,5,26,0.05
2013-1-31,56.0,29.9,22.0,51.0,18.0,9.0,85,61,44,29.77,29.08,18,11,44,0.08
2013-2-1,24.0,20.8,19.0,17.0,13.5,9.0,89,74,59,30.28,29.77,13,7,27,0.01
2013-2-2,22.0,18.8,16.0,16.0,11.0,6.0,83,71,62,30.29,30.08,9,4,20,0.01
2013-2-3,26.0,20.0,14.0,17.0,14.3,11.0,90,79,59,30.08,29.89,9,2,19,0.00
2013-2-4,24.0,20.3,17.0,15.0,11.3,8.0,86,69,52,30.05,29.95,11,5,23,0.00
2013-2-5,27.0,22.3,17.0,18.0,15.0,12.0,88,74,61,30.07,29.94,5,1,11,0.00
2013-2-6,28.0,24.7,19.0,24.0,16.1,9.0,88,70,49,30.48,29.96,14,5,25,0.00
2013-2-7,30.0,23.5,17.0,23.0,14.1,9.0,88,68,55,30.54,30.20,7,2,15,0.00
2013-2-8,33.0,28.7,19.0,32.0,24.4,17.0,95,85,63,30.20,29.88,6,1,15,0.00
2013-2-9,22.0,19.1,16.0,18.0,16.1,12.0,92,88,82,30.52,30.16,2,0,7,0.00
2013-2-10,33.0,21.5,8.0,26.0,16.7,5.0,89,82,73,30.52,30.08,5,2,14,0.07
2013-2-11,51.0,38.3,33.0,41.0,31.2,26.0,88,76,67,30.08,29.63,21,8,50,0.31
2013-2-12,36.0,33.4,32.0,31.0,27.2,24.0,91,78,66,30.04,29.76,15,8,35,0.01
2013-2-13,39.0,32.3,27.0,26.0,24.5,23.0,85,73,56,30.00,29.82,5,2,11,0.00
2013-2-14,40.0,33.2,27.0,34.0,27.5,22.0,93,80,54,30.01,29.87,6,2,13,0.11
2013-2-15,39.0,35.1,26.0,35.0,24.6,16.0,93,66,48,30.14,29.85,15,8,34,0.11
2013-2-16,30.0,24.5,23.0,20.0,16.8,15.0,83,72,55,30.15,30.02,5,2,13,0.01
2013-2-17,23.0,16.7,13.0,19.0,11.5,6.0,90,80,68,30.28,30.00,13,5,26,0.00
2013-2-18,29.0,21.3,13.0,17.0,12.2,8.0,87,69,49,30.40,30.03,11,3,21,0.04
2013-2-19,45.0,34.1,27.0,36.0,25.0,16.0,90,70,56,30.03,29.62,15,6,34,0.12
2013-2-20,27.0,23.0,20.0,19.0,14.6,11.0,80,70,56,30.14,29.83,15,10,32,0.01
2013-2-21,23.0,18.4,14.0,18.0,13.5,9.0,87,80,75,30.52,30.12,13,6,26,0.00
2013-2-22,34.0,27.4,22.0,28.0,22.1,17.0,92,80,69,30.50,30.11,7,3,17,0.00
2013-2-23,39.0,34.3,32.0,32.0,29.1,24.0,91,81,73,30.12,29.96,7,3,16,0.08
2013-2-24,34.0,31.8,30.0,28.0,25.4,23.0,88,77,67,30.14,29.94,10,5,21,0.01
2013-2-25,37.0,33.8,31.0,29.0,27.7,26.0,85,78,66,30.33,30.13,7,3,14,0.01
2013-2-26,43.0,34.7,27.0,32.0,27.5,24.0,95,77,55,30.33,29.96,9,3,21,0.09
2013-2-27,35.0,33.4,32.0,34.0,32.0,30.0,96,95,93,29.96,29.65,6,2,13,0.68
2013-2-28,38.0,34.7,33.0,33.0,32.2,31.0,96,91,81,29.80,29.62,7,4,17,0.46
2013-3-1,33.0,30.6,28.0,32.0,26.5,22.0,95,85,77,30.02,29.81,10,3,20,0.04
2013-3-2,28.0,25.2,23.0,23.0,20.9,18.0,90,84,78,30.04,29.97,9,4,15,0.00
2013-3-3,25.0,23.7,22.0,22.0,19.0,16.0,91,82,71,29.99,29.95,8,4,19,0.00
2013-3-4,30.0,26.2,22.0,23.0,19.6,16.0,84,76,66,30.14,29.98,13,7,25,0.01
2013-3-5,32.0,27.8,26.0,25.0,22.2,20.0,87,79,70,30.19,30.08,8,2,17,0.03
2013-3-6,40.0,32.4,24.0,33.0,27.8,20.0,88,83,68,30.24,30.06,5,1,12,0.07
2013-3-7,36.0,34.2,32.0,33.0,29.9,24.0,92,84,69,30.37,30.22,5,1,12,0.01
2013-3-8,41.0,35.5,31.0,27.0,24.5,22.0,79,65,47,30.47,30.35,7,3,15,0.00
2013-3-9,47.0,36.7,29.0,33.0,28.0,23.0,91,72,48,30.51,30.32,4,1,8,0.00
2013-3-10,64.0,49.5,35.0,29.0,27.0,23.0,72,44,27,30.32,30.05,7,3,16,0.00
2013-3-11,55.0,53.5,50.0,41.0,31.0,27.0,60,42,36,30.07,29.74,9,4,21,0.00
2013-3-12,55.0,41.5,36.0,47.0,34.5,28.0,91,76,64,29.98,29.74,13,6,27,0.10
2013-3-13,40.0,33.7,25.0,30.0,24.8,18.0,84,70,54,30.02,29.90,14,7,26,0.01
2013-3-14,33.0,26.0,19.0,19.0,11.9,6.0,84,57,32,30.14,30.02,20,11,42,0.00
2013-3-15,39.0,31.7,26.0,32.0,23.2,14.0,91,71,55,30.14,29.80,14,6,29,0.02
2013-3-16,31.0,25.8,22.0,20.0,17.2,15.0,79,70,59,30.07,29.95,9,2,16,0.01
2013-3-17,29.0,25.2,22.0,23.0,16.2,8.0,89,70,46,30.44,30.07,6,2,16,0.00
2013-3-18,34.0,25.1,17.0,29.0,16.8,10.0,93,72,44,30.44,29.85,12,4,24,0.00
2013-3-19,37.0,32.4,27.0,33.0,27.2,20.0,92,81,61,29.91,29.78,19,5,33,0.12
2013-3-20,35.0,28.6,24.0,25.0,19.8,16.0,83,71,46,29.92,29.88,14,7,26,0.03
2013-3-21,32.0,26.9,21.0,25.0,17.7,12.0,83,69,44,29.91,29.80,13,6,25,0.02
2013-3-22,33.0,29.0,26.0,27.0,24.4,20.0,92,83,70,30.01,29.82,14,6,22,0.04
2013-3-23,40.0,33.6,29.0,28.0,24.6,21.0,87,70,53,30.09,29.98,14,7,24,0.04
2013-3-24,38.0,33.0,28.0,28.0,23.7,19.0,88,69,52,30.10,29.84,5,2,11,0.01
2013-3-25,40.0,35.3,32.0,29.0,26.3,24.0,81,70,57,29.84,29.70,7,2,13,0.00
2013-3-26,44.0,38.3,33.0,33.0,28.8,26.0,82,69,52,30.01,29.80,8,3,16,0.00
2013-3-27,47.0,37.9,33.0,35.0,30.1,26.0,94,74,51,30.13,29.99,10,6,25,0.02
2013-3-28,46.0,39.0,34.0,35.0,31.5,26.0,92,76,48,30.27,30.11,10,5,17,0.02
2013-3-29,51.0,42.2,37.0,34.0,31.2,26.0,84,67,40,30.28,30.20,11,4,20,0.00
2013-3-30,50.0,41.2,32.0,30.0,25.6,19.0,80,56,33,30.29,30.14,5,2,11,0.00
2013-3-31,58.0,44.8,37.0,43.0,30.3,-99.9,91,62,33,30.14,29.69,9,3,20,0.03
2013-4-1,45.0,37.0,28.0,40.0,26.5,14.0,92,68,38,30.02,29.63,17,8,37,0.06
2013-4-2,34.0,28.8,24.0,26.0,20.5,15.0,89,72,53,30.19,30.01,14,7,30,0.01
2013-4-3,37.0,31.2,27.0,22.0,16.7,11.0,70,55,35,30.46,30.19,13,7,27,0.01
2013-4-4,56.0,38.2,26.0,21.0,18.9,15.0,73,49,20,30.45,29.99,9,3,18,0.00
2013-4-5,45.0,39.4,31.0,30.0,22.8,14.0,70,52,36,30.23,29.96,14,6,26,0.00
2013-4-6,46.0,36.2,27.0,22.0,18.9,14.0,73,50,31,30.42,30.14,6,2,13,0.00
2013-4-7,71.0,54.7,43.0,45.0,31.5,19.0,67,42,32,30.14,29.76,21,7,37,0.00
2013-4-8,56.0,45.5,40.0,43.0,35.6,33.0,92,69,48,30.20,29.83,6,2,13,0.03
2013-4-9,56.0,48.2,42.0,51.0,42.8,39.0,96,82,67,30.18,29.83,12,4,27,0.60
2013-4-10,45.0,41.3,38.0,44.0,40.2,37.0,97,96,94,30.14,29.97,6,2,25,0.94
2013-4-11,39.0,34.5,32.0,38.0,30.9,25.0,95,87,64,30.24,30.06,8,2,18,0.23
2013-4-12,50.0,40.3,34.0,48.0,36.9,30.0,97,88,71,30.09,29.62,12,6,34,0.72
2013-4-13,46.0,42.4,40.0,37.0,33.8,30.0,81,72,56,30.01,29.84,14,8,33,0.01
2013-4-14,45.0,40.0,36.0,34.0,28.4,25.0,87,64,48,30.28,30.01,10,-12,25,0.00
2013-4-15,74.0,54.7,35.0,47.0,37.3,25.0,70,54,36,30.27,30.06,8,3,20,0.00
2013-4-16,65.0,57.6,45.0,58.0,48.8,32.0,94,73,59,30.31,30.03,13,5,27,0.09
2013-4-17,52.0,45.5,38.0,37.0,32.4,28.0,80,61,43,30.44,30.31,6,2,12,0.01
2013-4-18,77.0,60.7,44.0,57.0,47.0,31.0,73,61,45,30.33,29.77,12,5,23,0.00
2013-4-19,73.0,59.9,42.0,58.0,49.0,30.0,82,67,58,29.83,29.42,19,9,41,0.01
2013-4-20,43.0,38.8,34.0,33.0,25.9,19.0,84,60,48,30.49,29.80,16,9,35,0.01
2013-4-21,40.0,35.1,30.0,25.0,19.6,11.0,72,54,33,30.78,30.48,6,2,10,0.01
2013-4-22,58.0,45.8,32.0,29.0,23.8,16.0,66,44,28,30.71,30.42,9,3,19,0.00
2013-4-23,61.0,51.3,40.0,38.0,32.5,26.0,69,49,39,30.43,30.03,8,4,18,0.00
2013-4-24,68.0,54.3,39.0,55.0,42.7,33.0,89,66,49,30.04,29.63,14,5,36,0.06
2013-4-25,57.0,44.8,36.0,40.0,31.4,25.0,92,63,30,30.38,30.04,11,4,22,0.07
2013-4-26,51.0,45.1,38.0,40.0,32.6,25.0,91,64,40,30.55,30.38,7,3,16,0.07
2013-4-27,68.0,53.2,39.0,37.0,33.4,29.0,75,50,27,30.52,30.30,6,1,11,0.00
2013-4-28,75.0,60.5,51.0,49.0,37.2,-99.9,84,47,23,30.30,30.09,10,4,21,0.05
2013-4-29,64.0,57.3,50.0,51.0,48.7,46.0,90,74,58,30.12,30.05,8,4,19,0.13
2013-4-30,73.0,63.0,56.0,54.0,51.8,49.0,89,68,48,30.28,30.11,9,3,21,0.02
2013-5-1,77.0,67.1,58.0,51.0,43.1,33.0,75,46,22,30.40,30.28,7,2,15,0.00
2013-5-2,75.0,64.4,52.0,41.0,37.2,32.0,54,37,27,30.47,30.32,4,1,10,0.00
2013-5-3,77.0,66.9,54.0,46.0,41.6,36.0,63,41,29,30.37,30.27,6,1,16,0.00
2013-5-4,74.0,63.8,53.0,44.0,40.6,37.0,61,44,29,30.35,30.21,6,1,13,0.00
2013-5-5,73.0,63.6,51.0,45.0,42.3,39.0,73,47,34,30.26,30.15,4,1,10,0.00
2013-5-6,71.0,62.5,51.0,41.0,37.7,33.0,58,41,26,30.22,30.08,2,0,8,0.00
2013-5-7,75.0,65.7,56.0,52.0,49.7,40.0,78,57,43,30.18,30.07,3,0,8,0.00
2013-5-8,70.0,63.0,57.0,60.0,54.7,49.0,94,75,63,30.11,29.98,5,1,14,0.09
2013-5-9,67.0,60.9,56.0,60.0,57.1,55.0,97,88,74,30.01,29.92,3,0,11,0.37
2013-5-10,73.0,60.7,53.0,63.0,54.3,-99.9,95,84,64,30.01,29.78,6,1,20,0.23
2013-5-11,59.0,54.7,49.0,58.0,49.8,43.0,97,84,67,29.84,29.71,11,4,24,0.28
2013-5-12,51.0,44.9,39.0,45.0,34.7,-99.9,93,71,45,29.98,29.75,17,7,33,0.02
2013-5-13,50.0,42.6,36.0,35.0,31.2,28.0,79,65,45,30.19,29.98,12,6,29,0.02
2013-5-14,59.0,47.3,36.0,37.0,33.2,27.0,88,61,32,30.24,30.04,4,1,12,0.00
2013-5-15,81.0,60.3,46.0,59.0,44.6,33.0,91,59,38,30.04,29.57,17,4,37,0.07
2013-5-16,77.0,60.5,54.0,46.0,23.1,-99.9,63,43,23,30.05,29.78,14,5,30,0.01
2013-5-17,64.0,55.3,46.0,43.0,35.8,-99.9,77,57,33,30.29,30.05,2,0,6,0.00
2013-5-18,70.0,57.7,43.0,48.0,42.7,39.0,88,60,38,30.33,30.21,4,1,10,0.00
2013-5-19,80.0,67.7,58.0,62.0,56.3,47.0,82,68,50,30.21,30.03,4,1,12,0.00
2013-5-20,83.0,72.8,64.0,66.0,62.1,58.0,81,70,54,30.09,29.91,5,1,13,0.00
2013-5-21,85.0,71.4,62.0,71.0,63.6,57.0,94,77,59,29.96,29.78,6,1,29,0.08
2013-5-22,86.0,71.6,58.0,71.0,64.8,57.0,97,80,54,29.84,29.67,8,1,24,0.15
2013-5-23,78.0,67.8,45.0,64.0,58.2,43.0,93,73,50,29.94,29.74,10,3,25,0.10
2013-5-24,52.0,43.4,38.0,43.0,38.2,36.0,95,84,55,30.26,29.94,6,2,18,0.20
2013-5-25,58.0,50.2,43.0,39.0,35.4,32.0,79,58,39,30.29,30.20,10,4,23,0.01
2013-5-26,63.0,54.2,45.0,39.0,35.0,29.0,72,50,31,30.27,30.19,10,4,22,0.00
2013-5-27,67.0,57.9,45.0,45.0,36.8,30.0,75,48,26,30.34,30.20,6,1,13,0.00
2013-5-28,63.0,57.3,53.0,59.0,49.4,37.0,97,77,49,30.22,29.99,5,1,11,0.52
2013-5-29,82.0,71.0,59.0,68.0,62.3,58.0,98,77,51,30.05,29.95,18,4,29,0.88
2013-5-30,90.0,79.2,67.0,66.0,62.5,57.0,84,59,33,30.14,30.05,8,3,19,0.08
2013-5-31,92.0,81.1,71.0,68.0,63.9,60.0,79,58,35,30.10,29.95,8,2,20,0.00
2013-6-1,90.0,77.1,69.0,69.0,65.0,62.0,94,68,45,30.00,29.80,10,3,27,0.16
2013-6-2,77.0,70.1,58.0,68.0,61.3,-99.9,97,78,50,29.92,29.72,19,5,38,0.62
2013-6-3,64.0,57.4,51.0,52.0,44.1,40.0,80,62,42,30.07,29.92,8,4,18,0.01
2013-6-4,68.0,58.9,50.0,46.0,40.0,35.0,79,52,32,30.22,30.07,8,2,16,0.00
2013-6-5,67.0,59.1,54.0,53.0,42.7,34.0,73,55,39,30.28,30.15,4,1,11,0.00
2013-6-6,57.0,55.7,54.0,56.0,52.2,44.0,97,89,61,30.16,29.91,5,1,14,1.39
2013-6-7,61.0,57.5,55.0,59.0,56.4,54.0,98,97,91,29.91,29.85,2,0,6,0.26
2013-6-8,65.0,58.5,55.0,59.0,56.0,54.0,99,92,72,30.13,29.86,5,1,13,0.06
2013-6-9,72.0,64.7,56.0,58.0,53.9,51.0,86,69,49,30.25,30.12,4,1,12,0.01
2013-6-10,70.0,64.1,61.0,64.0,59.5,54.0,96,85,74,30.18,29.76,6,2,14,0.10
2013-6-11,67.0,64.2,60.0,64.0,60.7,54.0,98,89,74,29.88,29.68,12,3,22,0.06
2013-6-12,73.0,65.0,55.0,58.0,54.5,50.0,92,71,46,29.99,29.82,3,0,8,0.02
2013-6-13,67.0,60.6,56.0,59.0,56.5,54.0,96,87,69,29.84,29.57,9,1,17,1.02
2013-6-14,75.0,64.4,54.0,59.0,55.8,53.0,97,76,51,30.02,29.83,7,2,17,0.02
2013-6-15,76.0,66.6,55.0,57.0,49.9,41.0,78,57,29,30.10,29.99,8,3,17,0.00
2013-6-16,77.0,68.0,62.0,66.0,59.2,51.0,95,74,57,29.99,29.74,9,3,22,0.16
2013-6-17,78.0,70.4,63.0,63.0,59.6,56.0,90,70,51,29.97,29.86,8,2,20,0.01
2013-6-18,68.0,61.4,55.0,57.0,50.9,47.0,88,70,49,30.08,29.94,3,0,9,0.02
2013-6-19,67.0,59.9,54.0,51.0,44.5,35.0,82,59,33,30.25,30.08,2,0,8,0.00
2013-6-20,71.0,58.7,45.0,51.0,45.9,35.0,93,67,30,30.32,30.25,2,0,7,0.00
2013-6-22,86.0,80.7,75.0,72.0,68.4,63.0,88,68,50,30.16,30.04,7,2,18,0.02
2013-6-23,90.0,81.2,72.0,72.0,68.1,64.0,88,66,46,30.10,30.02,10,3,26,0.02
2013-6-24,88.0,80.4,73.0,69.0,65.9,62.0,78,62,44,30.06,29.96,11,5,22,0.00
2013-6-25,82.0,77.1,69.0,71.0,66.0,62.0,91,69,58,29.98,29.82,9,4,24,0.08
2013-6-26,85.0,75.9,69.0,71.0,66.7,64.0,92,74,55,29.86,29.81,6,3,17,0.14
2013-6-27,80.0,73.0,66.0,72.0,67.0,63.0,93,82,71,29.84,29.67,2,0,10,0.51
2013-6-28,66.0,64.0,61.0,65.0,62.9,60.0,97,96,94,29.67,29.56,3,0,9,0.79
2013-6-29,74.0,66.1,61.0,66.0,62.3,60.0,98,89,72,29.75,29.55,1,0,6,0.78
2013-6-30,77.0,69.3,62.0,66.0,63.1,60.0,95,81,67,29.98,29.74,2,0,8,0.02
2013-7-1,67.0,64.8,60.0,64.0,62.1,58.0,97,91,84,30.11,29.97,4,0,10,0.28
2013-7-2,74.0,65.5,60.0,68.0,62.4,58.0,97,90,79,30.15,30.07,2,0,6,0.21
2013-7-3,85.0,69.5,65.0,72.0,66.9,64.0,98,92,66,30.21,30.14,3,0,9,0.42
2013-7-4,87.0,75.6,69.0,73.0,69.9,67.0,98,84,52,30.22,30.14,6,1,13,0.43
2013-7-5,86.0,76.2,71.0,73.0,70.4,68.0,95,83,62,30.18,30.09,5,1,16,0.07
2013-7-6,88.0,77.2,70.0,69.0,66.6,62.0,87,71,43,30.19,30.06,5,2,10,0.01
2013-7-7,85.0,77.3,70.0,72.0,68.6,65.0,97,76,54,30.10,29.97,8,3,19,0.13
2013-7-8,85.0,74.1,71.0,73.0,66.9,-99.9,91,81,59,30.09,30.01,6,2,14,0.01
2013-7-9,85.0,75.1,70.0,73.0,70.0,67.0,96,85,61,30.09,29.94,5,0,16,0.21
2013-7-10,87.0,76.6,71.0,73.0,67.4,-99.9,97,77,60,29.95,29.75,10,4,25,0.20
2013-7-11,77.0,70.7,64.0,66.0,60.6,57.0,86,71,57,30.07,29.85,8,2,19,0.00
2013-7-12,75.0,66.0,63.0,67.0,62.9,60.0,95,89,72,30.20,30.07,0,0,3,0.00
2013-7-17,88.0,85.0,83.0,75.0,73.6,72.0,76,69,60,30.13,30.11,6,4,17,0.00
2013-7-18,89.0,82.5,76.0,77.0,74.0,71.0,90,76,61,30.14,29.97,6,2,16,0.30
2013-7-19,93.0,83.6,71.0,75.0,70.6,66.0,87,66,46,29.98,29.74,14,6,35,0.04
2013-7-20,82.0,73.6,68.0,69.0,62.7,-99.9,96,73,40,29.92,29.74,11,2,28,0.33
2013-7-21,74.0,70.0,66.0,63.0,59.5,56.0,82,70,59,30.06,29.93,2,0,8,0.01
2013-7-22,80.0,69.9,61.0,66.0,61.6,57.0,93,76,57,30.05,29.84,2,0,7,0.31
2013-7-23,86.0,74.5,67.0,70.0,66.3,59.0,97,78,46,29.84,29.65,11,2,21,0.47
2013-7-24,69.0,63.4,58.0,59.0,51.8,48.0,79,67,51,30.09,29.73,8,2,18,0.01
2013-7-25,73.0,63.8,52.0,56.0,52.0,49.0,92,67,45,30.19,30.10,2,0,8,0.00
2013-7-26,75.0,66.7,56.0,59.0,53.2,49.0,91,64,42,30.18,30.06,3,0,11,0.00
2013-7-27,80.0,70.2,59.0,67.0,60.9,54.0,95,74,52,30.07,29.87,3,0,14,0.08
2013-7-28,74.0,67.8,63.0,67.0,62.4,57.0,96,83,67,30.03,29.85,4,0,10,0.11
2013-7-29,73.0,64.9,58.0,58.0,55.1,51.0,89,72,48,30.17,30.03,9,3,18,0.02
2013-7-30,76.0,67.5,59.0,61.0,57.4,55.0,87,71,52,30.25,30.18,7,2,13,0.00
2013-7-31,81.0,70.3,60.0,67.0,60.2,56.0,92,72,45,30.21,29.98,3,0,10,0.00
2013-8-1,77.0,69.5,64.0,68.0,63.1,60.0,96,81,58,29.98,29.82,8,2,25,0.28
2013-8-2,76.0,67.7,61.0,64.0,60.8,55.0,94,80,54,29.96,29.88,10,1,22,0.55
2013-8-3,77.0,69.1,61.0,62.0,57.8,51.0,96,70,40,29.97,29.87,9,4,19,0.25
2013-8-4,71.0,66.0,59.0,59.0,54.5,51.0,88,67,51,30.10,29.97,12,4,22,0.00
2013-8-5,76.0,65.3,56.0,58.0,53.7,49.0,89,68,41,30.17,30.08,5,1,10,0.00
2013-8-6,80.0,67.6,56.0,62.0,55.8,51.0,90,69,38,30.12,30.04,4,0,10,0.00
2013-8-7,81.0,73.1,65.0,67.0,63.3,59.0,82,72,59,30.04,29.91,6,1,18,0.00
2013-8-8,83.0,73.8,67.0,71.0,67.7,63.0,96,82,63,30.00,29.94,7,0,16,0.15
2013-8-9,78.0,71.1,67.0,70.0,66.0,59.0,97,85,55,29.96,29.90,7,2,20,0.47
2013-8-10,74.0,67.9,63.0,61.0,54.8,48.0,88,64,46,30.14,29.96,8,2,17,0.01
2013-8-11,75.0,66.2,57.0,59.0,55.5,52.0,91,70,52,30.18,30.09,4,0,10,0.00
2013-8-12,79.0,69.8,63.0,63.0,59.0,56.0,82,70,48,30.10,29.91,5,0,12,0.00
2013-8-13,74.0,65.7,60.0,67.0,58.0,-99.9,97,79,57,29.91,29.79,10,3,25,0.34
2013-8-14,69.0,59.6,54.0,55.0,47.2,-99.9,92,69,47,30.13,29.89,10,5,23,0.02
2013-8-15,75.0,60.6,54.0,53.0,40.7,-99.9,84,60,43,30.19,30.11,9,4,20,0.00
2013-8-16,76.0,65.1,56.0,58.0,51.3,-99.9,85,66,46,30.25,30.16,7,1,11,0.00
2013-8-17,82.0,69.1,58.0,60.0,57.3,54.0,88,68,40,30.35,30.26,3,0,7,0.00
2013-8-18,81.0,69.5,60.0,62.0,56.7,-99.9,87,67,43,30.30,30.16,5,0,10,0.00
2013-8-19,82.0,68.6,62.0,66.0,50.3,-99.9,88,69,44,30.16,30.07,6,2,12,0.00
2013-8-20,85.0,73.7,64.0,63.0,58.6,-99.9,86,63,42,30.17,30.09,9,4,17,0.00
2013-8-21,87.0,76.0,65.0,64.0,61.5,59.0,82,63,42,30.20,30.06,8,2,16,0.00
2013-8-22,85.0,75.8,69.0,72.0,65.1,57.0,84,70,55,30.07,29.93,11,4,21,0.04
2013-8-23,71.0,67.2,60.0,61.0,57.2,54.0,85,71,58,30.26,30.02,4,1,10,0.04
2013-8-24,74.0,65.3,55.0,56.0,52.1,46.0,92,65,38,30.41,30.26,3,1,10,0.00
2013-8-25,84.0,69.5,54.0,58.0,52.7,-99.9,93,61,35,30.40,30.17,9,2,18,0.00
2013-8-26,78.0,70.8,67.0,70.0,65.4,58.0,95,84,57,30.22,29.96,8,4,24,0.34
2013-8-27,81.0,71.9,69.0,72.0,68.8,67.0,96,90,75,29.99,29.92,3,1,11,0.23
2013-8-28,79.0,76.0,71.0,71.0,70.2,68.0,94,82,77,29.99,29.91,3,1,11,0.07
2013-8-29,79.0,73.3,68.0,71.0,68.7,66.0,98,86,71,30.09,29.99,2,0,9,0.03
2013-8-30,86.0,75.1,66.0,69.0,66.0,63.0,94,75,48,30.06,29.80,6,2,13,0.00
2013-8-31,82.0,73.5,69.0,72.0,69.1,67.0,96,87,68,29.90,29.76,6,1,16,0.10
2013-9-1,78.0,71.3,68.0,70.0,66.3,-99.9,96,86,74,29.90,29.80,3,0,12,0.64
2013-9-2,85.0,72.5,66.0,72.0,67.2,57.0,98,85,63,29.83,29.71,11,2,20,0.70
2013-9-3,67.0,64.6,62.0,59.0,57.0,55.0,84,76,66,29.98,29.83,10,5,22,0.01
2013-9-4,79.0,68.3,58.0,64.0,55.7,49.0,87,67,35,30.04,29.98,11,5,26,0.00
2013-9-5,66.0,61.3,54.0,60.0,48.6,39.0,83,64,42,30.28,30.01,5,2,15,0.00
2013-9-6,71.0,59.3,46.0,53.0,46.4,42.0,88,65,40,30.35,30.15,5,1,14,0.00
2013-9-7,65.0,60.5,57.0,60.0,53.5,47.0,94,78,64,30.16,29.92,6,2,16,0.08
2013-9-8,65.0,60.8,51.0,64.0,49.1,-99.9,96,69,46,30.18,29.91,8,2,17,0.08
2013-9-9,78.0,61.7,46.0,61.0,51.5,44.0,92,71,46,30.23,30.02,6,1,16,0.05
2013-9-10,92.0,79.2,68.0,75.0,69.4,61.0,93,73,56,30.03,29.93,11,5,27,0.08
2013-9-11,93.0,83.4,76.0,74.0,71.6,65.0,82,69,47,30.06,29.92,9,4,19,0.06
2013-9-12,76.0,70.2,63.0,69.0,65.5,58.0,93,85,72,29.96,29.76,9,3,18,0.04
2013-9-13,63.0,55.1,51.0,59.0,51.9,46.0,95,89,81,30.07,29.79,6,1,15,0.19
2013-9-14,62.0,53.9,50.0,47.0,44.2,38.0,89,71,45,30.19,30.07,7,2,15,0.08
2013-9-15,69.0,55.6,48.0,52.0,44.4,-99.9,91,69,53,30.23,30.11,10,3,20,0.03
2013-9-16,54.0,51.3,47.0,52.0,47.8,42.0,95,88,71,30.45,30.13,5,1,13,0.09
2013-9-17,62.0,51.0,41.0,48.0,43.2,39.0,95,77,46,30.58,30.37,4,0,10,0.01
2013-9-18,56.0,47.9,46.0,45.0,43.2,41.0,88,84,67,30.38,30.17,2,0,10,0.00
2013-9-19,79.0,65.1,54.0,61.0,53.1,46.0,90,67,38,30.19,30.07,6,1,14,0.00
2013-9-20,83.0,70.9,60.0,65.0,60.2,55.0,93,71,51,30.07,29.83,6,1,14,0.00
2013-9-21,73.0,64.1,54.0,62.0,59.8,52.0,97,87,64,29.83,29.67,11,1,22,0.57
2013-9-22,55.0,51.8,51.0,52.0,43.9,-99.9,93,76,60,30.09,29.77,8,4,25,0.08
2013-9-23,58.0,52.6,49.0,44.0,42.0,40.0,76,68,55,30.22,30.08,5,1,14,0.00
2013-9-24,63.0,53.3,41.0,48.0,43.3,39.0,95,70,46,30.22,30.08,3,1,9,0.00
2013-9-25,67.0,55.7,44.0,53.0,46.0,42.0,93,72,48,30.09,30.03,5,1,9,0.00
2013-9-26,67.0,56.8,46.0,57.0,50.3,44.0,94,80,60,30.22,30.06,3,1,8,0.00
2013-9-27,63.0,56.6,49.0,55.0,51.9,47.0,94,85,71,30.33,30.22,4,0,9,0.00
2013-9-28,72.0,58.7,46.0,57.0,51.9,45.0,98,80,58,30.38,30.24,3,0,9,0.00
2013-9-29,77.0,61.6,50.0,55.0,49.9,-99.9,93,70,45,30.24,30.05,5,1,17,0.00
2013-9-30,76.0,65.4,58.0,61.0,55.9,50.0,80,72,57,30.07,29.99,3,0,11,0.00
2013-10-1,69.0,66.4,64.0,60.0,57.8,57.0,82,74,68,30.03,29.96,3,1,12,0.00
2013-10-2,78.0,69.1,62.0,63.0,58.9,50.0,86,72,41,30.14,29.96,8,4,21,0.00
2013-10-3,74.0,62.1,52.0,57.0,51.6,41.0,90,71,32,30.19,30.08,5,0,9,0.00
2013-10-4,63.0,61.1,59.0,62.0,58.6,53.0,97,92,77,30.13,30.05,1,0,6,0.25
2013-10-5,62.0,60.1,59.0,59.0,57.0,55.0,93,90,83,30.16,30.10,2,0,9,0.02
2013-10-6,79.0,67.5,60.0,72.0,64.1,57.0,98,89,74,30.11,29.79,4,1,14,0.37
2013-10-7,74.0,61.8,52.0,66.0,55.4,47.0,94,80,66,30.09,29.67,11,4,32,0.22
2013-10-8,60.0,53.6,47.0,49.0,46.0,43.0,90,76,58,30.43,30.09,5,1,17,0.01
2013-10-9,66.0,53.6,41.0,52.0,46.1,40.0,96,77,50,30.49,30.35,2,0,8,0.00
2013-10-10,63.0,52.6,42.0,50.0,44.7,40.0,94,76,51,30.37,30.24,3,0,8,0.00
2013-10-11,66.0,54.1,44.0,54.0,49.2,42.0,96,85,62,30.24,30.19,3,0,8,0.00
2013-10-12,74.0,58.1,43.0,53.0,44.9,38.0,97,67,29,30.27,30.20,4,0,10,0.00
2013-10-13,74.0,61.1,53.0,61.0,53.0,-99.9,94,77,59,30.34,30.26,5,1,14,0.07
2013-10-14,63.0,56.8,50.0,59.0,52.7,47.0,96,87,67,30.39,30.31,4,1,12,0.18
2013-10-15,68.0,55.7,43.0,56.0,50.4,42.0,97,84,62,30.36,30.02,3,0,11,0.01
2013-10-16,65.0,61.2,57.0,59.0,54.5,50.0,94,79,63,30.03,29.82,5,1,15,0.13
2013-10-17,65.0,56.8,51.0,54.0,49.7,47.0,95,78,55,29.95,29.73,6,2,16,0.25
2013-10-18,60.0,53.9,50.0,53.0,44.3,37.0,95,72,44,29.97,29.77,12,5,25,0.25
2013-10-19,63.0,54.9,45.0,47.0,43.2,41.0,89,66,47,29.97,29.69,10,3,23,0.03
2013-10-20,55.0,47.5,42.0,45.0,39.2,-99.9,91,75,55,30.07,29.80,10,4,23,0.03
2013-10-21,67.0,55.7,45.0,49.0,40.5,37.0,91,60,33,30.06,29.86,9,2,23,0.00
2013-10-22,54.0,47.3,42.0,49.0,36.7,27.0,95,68,42,29.92,29.80,15,6,30,0.16
2013-10-23,46.0,41.8,37.0,39.0,34.7,29.0,87,76,62,29.91,29.77,9,2,22,0.02
2013-10-24,49.0,40.0,34.0,37.0,32.9,30.0,93,77,48,30.09,29.86,14,6,32,0.10
2013-10-25,51.0,44.2,39.0,39.0,36.8,34.0,91,76,56,30.27,30.09,10,4,20,0.10
2013-10-26,46.0,43.0,39.0,37.0,32.4,28.0,89,67,50,30.21,29.87,13,5,33,0.01
2013-10-27,49.0,42.4,38.0,38.0,34.4,-99.9,88,76,57,30.14,29.88,8,4,19,0.00
2013-10-28,48.0,42.2,35.0,40.0,30.5,-99.9,78,66,49,30.47,30.11,6,2,17,0.00
2013-10-29,45.0,37.0,28.0,31.0,27.4,23.0,89,69,52,30.57,30.40,3,0,9,0.00
2013-10-30,55.0,44.0,37.0,42.0,38.5,31.0,95,82,56,30.40,30.19,2,0,7,0.06
2013-10-31,66.0,54.0,42.0,59.0,49.8,38.0,97,86,70,30.19,29.46,4,1,19,0.40
2013-11-1,64.0,57.9,49.0,59.0,49.6,43.0,93,75,55,29.74,29.25,24,9,54,0.26
2013-11-2,51.0,45.6,38.0,47.0,42.4,32.0,94,89,77,30.07,29.67,7,2,17,0.33
2013-11-3,38.0,34.5,32.0,32.0,24.0,-99.9,79,67,55,30.62,30.07,5,2,15,0.06
2013-11-4,42.0,34.8,25.0,26.0,21.5,16.0,91,61,36,30.76,30.55,6,1,13,0.00
2013-11-5,58.0,46.4,35.0,36.0,28.9,20.0,63,51,41,30.56,30.41,6,1,16,0.00
2013-11-6,66.0,56.1,47.0,54.0,43.2,34.0,87,63,52,30.41,29.85,6,2,19,0.01
2013-11-7,58.0,44.9,39.0,55.0,38.2,29.0,92,78,55,30.05,29.85,12,6,23,0.15
2013-11-8,43.0,38.9,36.0,33.0,30.0,25.0,84,71,51,30.31,30.02,14,6,28,0.01
2013-11-9,49.0,41.8,37.0,42.0,29.7,-99.9,88,65,50,30.31,29.85,8,3,19,0.03
2013-11-10,50.0,44.4,40.0,43.0,35.9,31.0,86,72,62,30.22,29.85,17,8,37,0.02
2013-11-11,46.0,38.4,30.0,37.0,32.0,27.0,94,79,56,30.23,29.99,13,5,29,0.13
2013-11-12,32.0,28.4,26.0,27.0,22.0,19.0,88,77,63,30.47,30.18,13,6,23,0.08
2013-11-13,38.0,30.5,22.0,27.0,20.6,14.0,78,67,51,30.52,30.16,12,6,24,0.02
2013-11-14,51.0,42.3,36.0,29.0,20.4,16.0,61,43,27,30.19,30.08,15,8,30,0.01
2013-11-15,52.0,46.4,41.0,26.0,22.5,19.0,44,39,33,30.19,30.12,6,2,18,0.00
2013-11-16,59.0,50.2,44.0,40.0,31.3,-99.9,66,50,37,30.32,30.12,6,2,13,0.00
2013-11-17,61.0,55.8,50.0,54.0,49.4,40.0,92,79,66,30.12,29.43,15,5,30,0.14
2013-11-18,55.0,47.1,36.0,49.0,36.1,27.0,87,66,57,29.95,29.44,22,13,44,0.06
2013-11-19,37.0,35.2,30.0,30.0,26.0,21.0,78,69,58,30.54,29.95,14,6,30,0.00
2013-11-20,38.0,31.3,25.0,23.0,20.5,18.0,84,65,45,30.70,30.54,4,1,11,0.00
2013-11-21,45.0,38.9,30.0,37.0,25.1,15.0,85,58,46,30.57,30.35,8,3,18,0.01
2013-11-22,47.0,42.1,34.0,46.0,40.1,28.0,96,92,79,30.34,30.06,17,3,33,0.26
2013-11-23,37.0,28.6,19.0,28.0,20.4,-99.9,91,74,51,30.27,30.08,18,10,33,0.01
2013-11-24,25.0,20.7,17.0,17.0,13.5,10.0,89,74,59,30.50,30.25,15,8,28,0.00
2013-11-25,35.0,28.0,19.0,19.0,14.4,11.0,83,59,36,30.50,30.20,12,4,25,0.00
2013-11-26,37.0,33.8,32.0,31.0,27.5,21.0,96,78,58,30.24,29.92,12,2,25,0.01
2013-11-27,34.0,30.7,23.0,32.0,28.0,17.0,97,90,76,29.96,29.70,14,6,28,0.13
2013-11-28,30.0,24.2,20.0,20.0,16.6,14.0,88,73,57,30.53,29.96,13,4,22,0.06
2013-11-29,30.0,24.3,18.0,22.0,16.6,13.0,92,73,54,30.84,30.53,7,1,12,0.05
2013-11-30,31.0,23.2,11.0,23.0,15.0,-99.9,90,74,57,30.84,30.30,7,3,14,0.01
2013-12-1,40.0,34.7,31.0,34.0,28.9,23.0,95,80,65,30.31,30.05,4,1,12,0.25
2013-12-2,40.0,36.8,34.0,34.0,32.9,30.0,95,86,73,30.06,29.94,3,0,10,0.10
2013-12-3,43.0,35.0,31.0,31.0,29.3,28.0,91,80,55,30.11,29.99,5,1,9,0.01
2013-12-4,48.0,38.3,32.0,39.0,34.2,28.0,94,85,70,30.13,29.99,4,1,10,0.00
2013-12-5,63.0,51.2,42.0,54.0,44.5,32.0,87,78,58,30.07,29.80,11,5,29,0.00
2013-12-6,41.0,34.6,32.0,34.0,28.1,23.0,92,77,66,30.33,30.07,9,4,17,0.12
2013-12-7,34.0,28.6,26.0,26.0,18.2,-99.9,86,67,48,30.66,30.32,12,6,24,0.01
2013-12-8,29.0,25.5,21.0,23.0,14.8,12.0,89,64,52,30.68,30.32,9,3,20,0.00
2013-12-9,40.0,33.9,26.0,36.0,28.9,22.0,93,82,67,30.33,29.93,17,7,38,0.06
2013-12-10,34.0,25.5,20.0,26.0,16.0,10.0,90,67,54,30.14,30.00,17,6,31,0.01
2013-12-11,25.0,22.1,18.0,20.0,13.7,9.0,88,70,57,30.37,30.15,15,6,27,0.01
2013-12-12,20.0,16.4,13.0,15.0,10.4,6.0,88,77,58,30.42,30.13,14,6,31,0.01
2013-12-13,24.0,19.3,16.0,20.0,12.8,7.0,90,75,64,30.51,30.12,18,6,35,0.00
2013-12-14,22.0,13.1,8.0,20.0,8.3,-99.9,92,84,72,30.57,29.88,5,2,12,0.00
2013-12-15,24.0,21.2,17.0,23.0,18.2,12.0,94,88,71,29.93,29.71,14,4,27,0.00
2013-12-16,22.0,16.6,8.0,16.0,11.8,4.0,89,81,69,30.29,29.93,13,5,29,0.02
2013-12-17,27.0,18.6,4.0,25.0,15.7,1.0,91,88,81,30.28,30.01,8,2,20,0.02
2013-12-18,32.0,28.5,25.0,25.0,22.3,20.0,92,78,66,30.16,30.02,11,4,23,0.00
2013-12-19,43.0,35.4,27.0,34.0,26.8,19.0,84,71,58,30.14,29.98,9,3,29,0.15
2013-12-20,44.0,39.1,35.0,42.0,36.8,33.0,97,92,79,30.10,29.87,7,1,16,0.12
2013-12-21,55.0,37.8,31.0,51.0,35.4,-99.9,98,94,81,29.98,29.79,8,2,17,0.44
2013-12-22,44.0,35.4,31.0,42.0,34.0,30.0,98,95,86,30.06,29.70,8,2,24,0.64
2013-12-23,41.0,35.7,27.0,37.0,32.2,23.0,93,87,81,30.35,30.03,9,4,23,0.01
2013-12-24,27.0,20.7,11.0,23.0,17.7,8.0,92,88,82,30.60,30.30,13,3,21,0.01
2013-12-25,24.0,14.8,8.0,16.0,9.4,5.0,89,79,68,30.64,30.33,8,2,13,0.00
2013-12-26,31.0,27.5,24.0,28.0,20.9,15.0,90,76,69,30.37,30.16,10,3,23,0.02
2013-12-27,33.0,27.9,22.0,28.0,22.4,14.0,87,80,71,30.38,30.18,8,3,19,0.01
2013-12-28,44.0,37.7,32.0,35.0,29.7,-99.9,90,75,62,30.19,30.02,10,4,29,0.02
2013-12-29,46.0,41.0,31.0,40.0,33.2,26.0,92,75,52,30.02,29.69,14,4,28,0.03
2013-12-30,30.0,19.3,15.0,27.0,14.3,10.0,89,81,73,30.33,29.82,14,6,24,0.01
2013-12-31,25.0,18.4,15.0,19.0,11.0,4.0,82,72,58,30.34,30.07,17,5,34,0.00
2014-1-1,22.0,17.4,14.0,15.0,10.5,7.0,89,75,60,30.51,30.34,10,3,20,0.00
2014-1-2,14.0,11.7,7.0,12.0,9.1,3.0,90,89,87,30.42,30.11,11,5,27,0.00